Alburnett, Iowa
Current Conditions -  °F | °C
As of 4:52 PM on Wednesday 22 Oct 2014 (Local Time) from KCID Reporting Station
Clear Clear  
Wind Chill: 59°   Ceiling: Unl
Heat Index: 59°   Visibility: 10mi
Dew Point: 40°   Wind: 14mph
Humidity: 49%   Direction: 130°SE
Pressure: 30.18"   Gusts: NA
Location:  42.15°N, 91.62°W
Report Text: KCID 222152Z 13012KT 10SM CLR 15/04 A3018 RMK AO2 SLP224 T01500044
Loading
Personal Weather Stations






























Interactive Weather Map
Tropical Storm Tracking
New forecast layout! Learn more

10-Day Weather Forecast

Advertisements
Track Severe Weather on mobile